sensor_id;sensor_type;location;lat;lon;timestamp;temperature;humidity
70081;DHT22;57452;50.496;30.504;2022-07-06T10:25:28;41.40;39.00
70081;DHT22;57452;50.496;30.504;2022-07-06T10:27:56;34.00;54.20
70081;DHT22;57452;50.496;30.504;2022-07-06T13:05:16;30.70;58.40
70081;DHT22;57452;50.496;30.504;2022-07-06T13:07:47;30.30;59.50
70081;DHT22;57452;50.496;30.504;2022-07-06T13:10:18;30.00;60.20
70081;DHT22;57452;50.496;30.504;2022-07-06T13:12:47;29.70;61.40
70081;DHT22;57452;50.496;30.504;2022-07-06T13:15:21;29.70;62.60
70081;DHT22;57452;50.496;30.504;2022-07-06T13:27:40;29.50;63.80
70081;DHT22;57452;50.496;30.504;2022-07-06T13:30:07;28.70;67.80
70081;DHT22;57452;50.496;30.504;2022-07-06T13:32:34;28.60;68.20
70081;DHT22;57452;50.496;30.504;2022-07-06T13:35:02;28.30;71.20
70081;DHT22;57452;50.496;30.504;2022-07-06T13:39:57;26.70;85.60
70081;DHT22;57452;50.496;30.504;2022-07-06T14:07:25;22.50;99.90
70081;DHT22;57452;50.496;30.504;2022-07-06T14:09:52;22.20;99.90
70081;DHT22;57452;50.496;30.504;2022-07-06T14:12:19;22.30;99.90
70081;DHT22;57452;50.496;30.504;2022-07-06T15:34:48;22.60;99.90
70081;DHT22;57452;50.496;30.504;2022-07-06T15:37:18;22.30;99.90
70081;DHT22;57452;50.496;30.504;2022-07-06T15:39:45;22.10;99.90
70081;DHT22;57452;50.496;30.504;2022-07-06T15:42:15;21.90;99.90
70081;DHT22;57452;50.496;30.504;2022-07-06T15:44:42;21.90;99.90
70081;DHT22;57452;50.496;30.504;2022-07-06T15:47:10;21.90;99.90
70081;DHT22;57452;50.496;30.504;2022-07-06T15:49:40;21.90;99.90
70081;DHT22;57452;50.496;30.504;2022-07-06T15:52:07;22.10;99.90
70081;DHT22;57452;50.496;30.504;2022-07-06T15:54:34;22.10;99.90
70081;DHT22;57452;50.496;30.504;2022-07-06T15:57:04;22.20;99.90
70081;DHT22;57452;50.496;30.504;2022-07-06T15:59:34;22.20;99.90
70081;DHT22;57452;50.496;30.504;2022-07-06T16:02:04;22.20;99.90
70081;DHT22;57452;50.496;30.504;2022-07-06T16:04:32;22.20;99.90
70081;DHT22;57452;50.496;30.504;2022-07-06T16:06:59;22.20;99.90
70081;DHT22;57452;50.496;30.504;2022-07-06T16:09:48;22.20;99.90
70081;DHT22;57452;50.496;30.504;2022-07-06T16:12:15;22.10;99.90
70081;DHT22;57452;50.496;30.504;2022-07-06T16:14:45;22.10;99.90
70081;DHT22;57452;50.496;30.504;2022-07-06T16:17:16;22.10;99.90
70081;DHT22;57452;50.496;30.504;2022-07-06T16:19:43;22.10;99.90
70081;DHT22;57452;50.496;30.504;2022-07-06T16:22:16;22.20;99.90
70081;DHT22;57452;50.496;30.504;2022-07-06T16:24:46;22.20;99.90
70081;DHT22;57452;50.496;30.504;2022-07-06T16:27:13;22.00;99.90
70081;DHT22;57452;50.496;30.504;2022-07-06T16:29:43;22.10;99.90
70081;DHT22;57452;50.496;30.504;2022-07-06T16:32:16;22.10;99.90
70081;DHT22;57452;50.496;30.504;2022-07-06T16:34:43;22.00;99.90
70081;DHT22;57452;50.496;30.504;2022-07-06T16:37:11;21.70;99.90
70081;DHT22;57452;50.496;30.504;2022-07-06T16:39:44;21.70;99.90
70081;DHT22;57452;50.496;30.504;2022-07-06T16:42:11;21.70;99.90
70081;DHT22;57452;50.496;30.504;2022-07-06T16:44:44;21.70;99.90
70081;DHT22;57452;50.496;30.504;2022-07-06T16:47:21;21.70;99.90
70081;DHT22;57452;50.496;30.504;2022-07-06T16:49:54;21.70;99.90
70081;DHT22;57452;50.496;30.504;2022-07-06T16:52:30;21.70;99.90
70081;DHT22;57452;50.496;30.504;2022-07-06T16:54:59;21.70;99.90
70081;DHT22;57452;50.496;30.504;2022-07-06T16:57:34;21.80;99.90
70081;DHT22;57452;50.496;30.504;2022-07-06T17:00:03;21.80;99.90
70081;DHT22;57452;50.496;30.504;2022-07-06T17:02:31;21.90;99.90
70081;DHT22;57452;50.496;30.504;2022-07-06T17:05:18;21.90;99.90
70081;DHT22;57452;50.496;30.504;2022-07-06T17:07:46;21.90;99.90
70081;DHT22;57452;50.496;30.504;2022-07-06T17:10:13;21.90;99.90
70081;DHT22;57452;50.496;30.504;2022-07-06T17:12:42;21.80;99.90
70081;DHT22;57452;50.496;30.504;2022-07-06T17:15:10;21.70;99.90
70081;DHT22;57452;50.496;30.504;2022-07-06T17:17:39;21.60;99.90
70081;DHT22;57452;50.496;30.504;2022-07-06T17:20:10;21.70;99.90
70081;DHT22;57452;50.496;30.504;2022-07-06T17:22:37;21.60;99.90
70081;DHT22;57452;50.496;30.504;2022-07-06T17:25:07;21.50;99.90
70081;DHT22;57452;50.496;30.504;2022-07-06T17:27:35;21.30;99.90
70081;DHT22;57452;50.496;30.504;2022-07-06T17:30:02;21.20;99.90
70081;DHT22;57452;50.496;30.504;2022-07-06T17:32:32;21.10;99.90
70081;DHT22;57452;50.496;30.504;2022-07-06T17:35:00;21.00;99.90
70081;DHT22;57452;50.496;30.504;2022-07-06T17:37:27;21.10;99.90
70081;DHT22;57452;50.496;30.504;2022-07-06T17:39:54;21.10;99.90
70081;DHT22;57452;50.496;30.504;2022-07-06T17:42:22;21.10;99.90
70081;DHT22;57452;50.496;30.504;2022-07-06T17:44:53;21.20;99.90
70081;DHT22;57452;50.496;30.504;2022-07-06T17:47:22;21.30;99.90
70081;DHT22;57452;50.496;30.504;2022-07-06T17:49:49;21.30;99.90
70081;DHT22;57452;50.496;30.504;2022-07-06T17:52:18;21.30;99.90
70081;DHT22;57452;50.496;30.504;2022-07-06T17:54:46;21.30;99.90
70081;DHT22;57452;50.496;30.504;2022-07-06T17:57:20;21.30;99.90
70081;DHT22;57452;50.496;30.504;2022-07-06T17:59:50;21.30;99.90
70081;DHT22;57452;50.496;30.504;2022-07-06T18:04:56;21.60;99.90
70081;DHT22;57452;50.496;30.504;2022-07-06T18:07:23;21.60;99.90
70081;DHT22;57452;50.496;30.504;2022-07-06T18:09:53;21.50;99.90
70081;DHT22;57452;50.496;30.504;2022-07-06T18:12:23;21.50;99.90
70081;DHT22;57452;50.496;30.504;2022-07-06T18:14:50;21.50;99.90
70081;DHT22;57452;50.496;30.504;2022-07-06T18:17:17;22.30;99.90
70081;DHT22;57452;50.496;30.504;2022-07-06T18:19:51;21.70;99.90
70081;DHT22;57452;50.496;30.504;2022-07-06T18:24:55;21.30;99.90
70081;DHT22;57452;50.496;30.504;2022-07-06T18:27:26;21.60;99.90
70081;DHT22;57452;50.496;30.504;2022-07-06T18:29:53;21.60;99.90
70081;DHT22;57452;50.496;30.504;2022-07-06T18:32:23;21.50;99.90
70081;DHT22;57452;50.496;30.504;2022-07-06T18:34:52;21.50;99.90
70081;DHT22;57452;50.496;30.504;2022-07-06T18:37:23;21.50;99.90
70081;DHT22;57452;50.496;30.504;2022-07-06T18:39:50;21.40;99.90
70081;DHT22;57452;50.496;30.504;2022-07-06T18:42:19;21.20;99.90
70081;DHT22;57452;50.496;30.504;2022-07-06T18:44:46;21.10;99.90
70081;DHT22;57452;50.496;30.504;2022-07-06T18:47:14;21.10;99.90
70081;DHT22;57452;50.496;30.504;2022-07-06T18:49:45;21.20;99.90
70081;DHT22;57452;50.496;30.504;2022-07-06T18:52:13;21.20;99.90
70081;DHT22;57452;50.496;30.504;2022-07-06T18:54:54;21.20;99.90
70081;DHT22;57452;50.496;30.504;2022-07-06T18:57:36;21.10;99.90
70081;DHT22;57452;50.496;30.504;2022-07-06T19:00:07;21.10;99.90
70081;DHT22;57452;50.496;30.504;2022-07-06T19:02:35;21.00;99.90
70081;DHT22;57452;50.496;30.504;2022-07-06T19:05:11;21.00;99.90
70081;DHT22;57452;50.496;30.504;2022-07-06T19:07:42;21.00;99.90
70081;DHT22;57452;50.496;30.504;2022-07-06T19:10:10;21.00;99.90
70081;DHT22;57452;50.496;30.504;2022-07-06T19:12:42;21.00;99.90
70081;DHT22;57452;50.496;30.504;2022-07-06T19:15:18;20.90;99.90
70081;DHT22;57452;50.496;30.504;2022-07-06T19:17:47;20.80;99.90
70081;DHT22;57452;50.496;30.504;2022-07-06T19:20:21;20.80;99.90
70081;DHT22;57452;50.496;30.504;2022-07-06T19:23:04;20.90;99.90
70081;DHT22;57452;50.496;30.504;2022-07-06T19:27:00;20.90;99.90
70081;DHT22;57452;50.496;30.504;2022-07-06T19:30:07;21.00;99.90
70081;DHT22;57452;50.496;30.504;2022-07-06T19:32:58;20.90;99.90
70081;DHT22;57452;50.496;30.504;2022-07-06T19:35:49;21.00;99.90
70081;DHT22;57452;50.496;30.504;2022-07-06T19:38:30;20.90;99.90
70081;DHT22;57452;50.496;30.504;2022-07-06T19:41:00;20.90;99.90
70081;DHT22;57452;50.496;30.504;2022-07-06T19:43:31;20.90;99.90
70081;DHT22;57452;50.496;30.504;2022-07-06T19:46:07;20.90;99.90
70081;DHT22;57452;50.496;30.504;2022-07-06T19:48:44;20.90;99.90
70081;DHT22;57452;50.496;30.504;2022-07-06T19:51:14;20.90;99.90
70081;DHT22;57452;50.496;30.504;2022-07-06T19:53:43;20.90;99.90
70081;DHT22;57452;50.496;30.504;2022-07-06T19:56:18;20.90;99.90
70081;DHT22;57452;50.496;30.504;2022-07-06T19:58:49;20.90;99.90
70081;DHT22;57452;50.496;30.504;2022-07-06T20:01:24;21.00;99.90
70081;DHT22;57452;50.496;30.504;2022-07-06T20:03:58;20.90;99.90
70081;DHT22;57452;50.496;30.504;2022-07-06T20:06:30;20.90;99.90
70081;DHT22;57452;50.496;30.504;2022-07-06T20:09:04;20.90;99.90
70081;DHT22;57452;50.496;30.504;2022-07-06T20:11:35;20.90;99.90
70081;DHT22;57452;50.496;30.504;2022-07-06T20:14:06;20.90;99.90
70081;DHT22;57452;50.496;30.504;2022-07-06T20:16:35;20.90;99.90
70081;DHT22;57452;50.496;30.504;2022-07-06T20:19:05;20.90;99.90
70081;DHT22;57452;50.496;30.504;2022-07-06T20:21:32;20.80;99.90
70081;DHT22;57452;50.496;30.504;2022-07-06T20:23:59;20.90;99.90
70081;DHT22;57452;50.496;30.504;2022-07-06T20:26:26;20.90;99.90
70081;DHT22;57452;50.496;30.504;2022-07-06T20:28:53;20.90;99.90
70081;DHT22;57452;50.496;30.504;2022-07-06T20:31:20;20.90;99.90
70081;DHT22;57452;50.496;30.504;2022-07-06T20:33:50;20.90;99.90
70081;DHT22;57452;50.496;30.504;2022-07-06T20:36:17;20.80;99.90
70081;DHT22;57452;50.496;30.504;2022-07-06T20:38:44;20.80;99.90
70081;DHT22;57452;50.496;30.504;2022-07-06T20:41:11;20.80;99.90
70081;DHT22;57452;50.496;30.504;2022-07-06T20:43:38;20.80;99.90
70081;DHT22;57452;50.496;30.504;2022-07-06T20:46:07;20.80;99.90
70081;DHT22;57452;50.496;30.504;2022-07-06T20:48:34;20.80;99.90
70081;DHT22;57452;50.496;30.504;2022-07-06T20:51:04;20.80;99.90
70081;DHT22;57452;50.496;30.504;2022-07-06T20:53:34;20.70;99.90
70081;DHT22;57452;50.496;30.504;2022-07-06T20:56:01;20.80;99.90
70081;DHT22;57452;50.496;30.504;2022-07-06T20:58:32;20.80;99.90
70081;DHT22;57452;50.496;30.504;2022-07-06T21:01:19;20.70;99.90
70081;DHT22;57452;50.496;30.504;2022-07-06T21:03:46;20.70;99.90
70081;DHT22;57452;50.496;30.504;2022-07-06T21:06:13;20.70;99.90
70081;DHT22;57452;50.496;30.504;2022-07-06T21:08:42;20.70;99.90
70081;DHT22;57452;50.496;30.504;2022-07-06T21:11:16;20.60;99.90
70081;DHT22;57452;50.496;30.504;2022-07-06T21:13:43;20.60;99.90
70081;DHT22;57452;50.496;30.504;2022-07-06T21:16:10;20.60;99.90
70081;DHT22;57452;50.496;30.504;2022-07-06T21:18:37;20.50;99.90
70081;DHT22;57452;50.496;30.504;2022-07-06T21:21:07;20.60;99.90
70081;DHT22;57452;50.496;30.504;2022-07-06T21:23:34;20.60;99.90
70081;DHT22;57452;50.496;30.504;2022-07-06T21:26:04;20.40;99.90
70081;DHT22;57452;50.496;30.504;2022-07-06T21:28:32;20.30;99.90
70081;DHT22;57452;50.496;30.504;2022-07-06T21:30:59;20.30;99.90
70081;DHT22;57452;50.496;30.504;2022-07-06T21:33:26;20.20;99.90
70081;DHT22;57452;50.496;30.504;2022-07-06T21:35:54;20.20;99.90
70081;DHT22;57452;50.496;30.504;2022-07-06T21:38:21;20.20;99.90
70081;DHT22;57452;50.496;30.504;2022-07-06T21:40:49;20.20;99.90
70081;DHT22;57452;50.496;30.504;2022-07-06T21:43:16;20.20;99.90
70081;DHT22;57452;50.496;30.504;2022-07-06T21:45:43;20.10;99.90
70081;DHT22;57452;50.496;30.504;2022-07-06T21:48:10;20.20;99.90
70081;DHT22;57452;50.496;30.504;2022-07-06T21:50:37;20.20;99.90
70081;DHT22;57452;50.496;30.504;2022-07-06T21:53:05;20.10;99.90
70081;DHT22;57452;50.496;30.504;2022-07-06T21:55:38;20.10;99.90
70081;DHT22;57452;50.496;30.504;2022-07-06T21:58:05;20.00;99.90
70081;DHT22;57452;50.496;30.504;2022-07-06T22:00:32;20.00;99.90
70081;DHT22;57452;50.496;30.504;2022-07-06T22:02:59;20.00;99.90
70081;DHT22;57452;50.496;30.504;2022-07-06T22:05:26;20.20;99.90
70081;DHT22;57452;50.496;30.504;2022-07-06T22:07:53;20.10;99.90
70081;DHT22;57452;50.496;30.504;2022-07-06T22:10:20;20.00;99.90
70081;DHT22;57452;50.496;30.504;2022-07-06T22:12:48;19.90;99.90
70081;DHT22;57452;50.496;30.504;2022-07-06T22:15:15;19.70;99.90
70081;DHT22;57452;50.496;30.504;2022-07-06T22:17:42;19.60;99.90
70081;DHT22;57452;50.496;30.504;2022-07-06T22:20:09;19.60;99.90
70081;DHT22;57452;50.496;30.504;2022-07-06T22:22:36;19.60;99.90
70081;DHT22;57452;50.496;30.504;2022-07-06T22:25:04;19.60;99.90
70081;DHT22;57452;50.496;30.504;2022-07-06T22:27:31;19.40;99.90
70081;DHT22;57452;50.496;30.504;2022-07-06T22:29:58;19.40;99.90
70081;DHT22;57452;50.496;30.504;2022-07-06T22:34:53;19.20;99.90
70081;DHT22;57452;50.496;30.504;2022-07-06T22:42:38;19.30;99.90
70081;DHT22;57452;50.496;30.504;2022-07-06T22:47:33;19.10;99.90
70081;DHT22;57452;50.496;30.504;2022-07-06T22:50:00;19.10;99.90
70081;DHT22;57452;50.496;30.504;2022-07-06T22:52:27;18.90;99.90
70081;DHT22;57452;50.496;30.504;2022-07-06T22:54:54;18.80;99.90
70081;DHT22;57452;50.496;30.504;2022-07-06T22:57:21;18.80;99.90
70081;DHT22;57452;50.496;30.504;2022-07-06T22:59:48;18.80;99.90
70081;DHT22;57452;50.496;30.504;2022-07-06T23:02:15;18.80;99.90
70081;DHT22;57452;50.496;30.504;2022-07-06T23:04:42;18.70;99.90
70081;DHT22;57452;50.496;30.504;2022-07-06T23:07:09;18.70;99.90
70081;DHT22;57452;50.496;30.504;2022-07-06T23:09:36;18.60;99.90
70081;DHT22;57452;50.496;30.504;2022-07-06T23:12:03;18.50;99.90
70081;DHT22;57452;50.496;30.504;2022-07-06T23:14:30;18.40;99.90
70081;DHT22;57452;50.496;30.504;2022-07-06T23:16:57;18.50;99.90
70081;DHT22;57452;50.496;30.504;2022-07-06T23:19:24;18.50;99.90
70081;DHT22;57452;50.496;30.504;2022-07-06T23:21:51;18.50;99.90
70081;DHT22;57452;50.496;30.504;2022-07-06T23:24:18;18.50;99.90
70081;DHT22;57452;50.496;30.504;2022-07-06T23:26:45;18.50;99.90
70081;DHT22;57452;50.496;30.504;2022-07-06T23:29:12;18.30;99.90
70081;DHT22;57452;50.496;30.504;2022-07-06T23:31:39;18.20;99.90
70081;DHT22;57452;50.496;30.504;2022-07-06T23:34:06;18.30;99.90
70081;DHT22;57452;50.496;30.504;2022-07-06T23:36:33;18.20;99.90
70081;DHT22;57452;50.496;30.504;2022-07-06T23:39:01;18.20;99.90
70081;DHT22;57452;50.496;30.504;2022-07-06T23:41:28;18.10;99.90
70081;DHT22;57452;50.496;30.504;2022-07-06T23:48:50;18.10;99.90
70081;DHT22;57452;50.496;30.504;2022-07-06T23:51:17;18.10;99.90
70081;DHT22;57452;50.496;30.504;2022-07-06T23:53:45;18.20;99.90
70081;DHT22;57452;50.496;30.504;2022-07-06T23:56:12;18.20;99.90
70081;DHT22;57452;50.496;30.504;2022-07-06T23:58:39;18.00;99.90
